Gembloux, Belgium
Current Conditions -  °F | °C
As of 7:20 AM on Monday 24 Nov 2014 (Local Time) from EBCI Reporting Station
Broken Clouds Broken Clouds  
Wind Chill:   Ceiling: 3800
Heat Index:   Visibility: 6mi
Dew Point:   Wind: 6mph
Humidity: 87%   Direction: 350°N
Pressure: 30.21"   Gusts: NA
Location:  50.56°N, 4.7°E
Report Text: EBCI 240620Z 35005KT 9999 BKN038 08/06 Q1023 NOSIG
Loading
Personal Weather Stations






























Interactive Weather Map New forecast layout! Learn more

10-Day Weather Forecast

Advertisements
Track Severe Weather on mobile